Time;durP1;ratioP1;P1;durP2;ratioP2;P2;SDS_P1;SDS_P2;PMS_P1;PMS_P2;Temp;Humidity;BMP_temperature;BMP_pressure;BME280_temperature;BME280_humidity;BME280_pressure;Samples;Min_cycle;Max_cycle;Signal;HPM_P1;HPM_P2
2022/08/12 00:43:36;;;;;;;4.78;1.60;;;;;;;25.95;36.65;98237.84;4455525;32;20141;-79
2022/08/12 00:48:49;;;;;;;3.78;1.48;;;;;;;25.57;37.15;98243.53;4455839;32;20445;-78
2022/08/12 00:51:16;;;;;;;3.10;1.50;;;;;;;25.36;37.63;98244.69;4441468;32;20096;-78
2022/08/12 00:53:43;;;;;;;3.28;1.48;;;;;;;25.45;37.57;98242.94;4441716;32;20125;-78
2022/08/12 00:56:11;;;;;;;5.32;1.70;;;;;;;25.20;37.84;98236.66;4455443;32;20452;-78
2022/08/12 00:58:45;;;;;;;4.93;1.60;;;;;;;25.54;37.41;98246.47;4455239;32;20141;-78
2022/08/12 01:01:13;;;;;;;4.70;1.70;;;;;;;26.03;36.63;98239.66;4455584;32;20096;-78
2022/08/12 01:12:03;;;;;;;6.75;1.70;;;;;;;25.43;37.50;98242.28;4455131;32;20496;-79
2022/08/12 01:14:30;;;;;;;5.35;2.08;;;;;;;24.84;38.55;98248.19;4441295;32;20176;-79
2022/08/12 01:16:58;;;;;;;3.95;1.67;;;;;;;24.95;38.15;98251.41;4455217;32;20163;-79
2022/08/12 01:19:25;;;;;;;3.97;1.70;;;;;;;25.11;37.84;98239.38;4441028;32;20073;-79
2022/08/12 01:22:15;;;;;;;3.08;1.75;;;;;;;25.18;38.01;98238.59;4441329;32;20097;-78
2022/08/12 01:24:55;;;;;;;4.78;1.65;;;;;;;25.25;38.12;98239.66;4454896;32;20093;-78
2022/08/12 01:27:24;;;;;;;3.85;1.73;;;;;;;25.16;38.30;98235.28;4441139;32;20152;-78
2022/08/12 01:29:52;;;;;;;5.28;1.60;;;;;;;24.55;38.68;98237.81;4454828;32;20107;-78
2022/08/12 01:32:22;;;;;;;2.90;1.48;;;;;;;24.97;37.41;98235.44;4454781;32;20093;-78
2022/08/12 01:35:12;;;;;;;4.57;1.48;;;;;;;25.14;37.00;98234.63;4454924;32;20088;-78
2022/08/12 01:37:52;;;;;;;3.53;1.60;;;;;;;24.74;37.69;98229.78;4454935;32;20085;-78
2022/08/12 01:40:23;;;;;;;5.75;1.70;;;;;;;24.30;38.69;98226.16;4454626;32;20114;-78
2022/08/12 01:43:07;;;;;;;2.78;1.55;;;;;;;23.77;39.70;98218.91;4442667;32;20105;-78
2022/08/12 01:45:59;;;;;;;4.60;1.83;;;;;;;24.30;38.90;98216.44;4454519;32;20142;-78
2022/08/12 01:48:54;;;;;;;4.53;1.80;;;;;;;25.12;37.43;98223.41;4444228;32;20483;-79
2022/08/12 01:51:41;;;;;;;7.93;1.85;;;;;;;24.97;37.91;98223.06;4440984;32;20148;-78
2022/08/12 01:54:37;;;;;;;5.72;1.62;;;;;;;25.43;37.23;98221.16;4454620;32;20528;-78
2022/08/12 01:57:38;;;;;;;5.45;1.70;;;;;;;25.20;37.26;98212.03;4454672;32;20101;-78
2022/08/12 02:00:34;;;;;;;6.62;2.10;;;;;;;24.51;38.04;98211.75;4454226;32;20081;-79
2022/08/12 02:13:20;;;;;;;5.50;1.85;;;;;;;25.28;37.02;98212.94;4444818;32;20184;-78
2022/08/12 02:16:41;;;;;;;4.68;1.60;;;;;;;25.17;37.46;98205.28;4445414;32;20085;-78
2022/08/12 02:19:12;;;;;;;4.43;1.70;;;;;;;25.35;36.93;98199.97;4456841;32;20144;-78
2022/08/12 02:22:08;;;;;;;6.93;1.90;;;;;;;24.72;38.33;98200.91;4443756;32;20120;-78
2022/08/12 02:24:37;;;;;;;6.60;2.00;;;;;;;23.14;41.51;98200.19;4442810;32;20111;-78
2022/08/12 02:27:09;;;;;;;4.18;1.70;;;;;;;23.12;41.69;98199.50;4442705;32;20448;-78
2022/08/12 02:29:41;;;;;;;4.18;1.80;;;;;;;23.44;41.11;98205.25;4442486;32;20154;-78
2022/08/12 02:32:09;;;;;;;3.75;1.70;;;;;;;23.47;41.15;98193.59;4456720;32;20120;-78
2022/08/12 02:34:36;;;;;;;6.43;1.90;;;;;;;23.64;40.97;98185.81;4456554;32;20156;-78
2022/08/12 02:37:03;;;;;;;3.60;1.83;;;;;;;24.01;39.83;98181.47;4456320;32;20443;-78
2022/08/12 02:39:34;;;;;;;5.12;2.40;;;;;;;24.83;37.80;98183.19;4456686;32;20448;-78
2022/08/12 02:42:03;;;;;;;4.70;1.87;;;;;;;24.36;38.61;98184.25;4456341;32;20108;-78
2022/08/12 02:44:36;;;;;;;5.07;1.92;;;;;;;23.81;39.83;98191.28;4456504;32;20106;-79
2022/08/12 02:47:05;;;;;;;6.18;2.05;;;;;;;24.01;39.27;98187.59;4456563;32;20089;-78
2022/08/12 02:49:35;;;;;;;5.25;1.90;;;;;;;24.03;39.28;98192.72;4456341;32;20101;-78
2022/08/12 02:52:02;;;;;;;5.60;2.37;;;;;;;23.47;40.47;98189.16;4442661;32;20499;-78
2022/08/12 02:54:29;;;;;;;3.33;1.80;;;;;;;24.69;38.14;98189.84;4442580;32;20106;-78
2022/08/12 02:56:57;;;;;;;4.15;1.70;;;;;;;24.81;38.20;98181.53;4456206;32;20156;-78
2022/08/12 02:59:26;;;;;;;3.72;1.85;;;;;;;24.09;39.75;98178.94;4442712;32;20131;-78
2022/08/12 03:02:03;;;;;;;5.07;1.70;;;;;;;24.28;39.44;98189.38;4456533;32;20153;-78
2022/08/12 03:04:50;;;;;;;5.60;1.67;;;;;;;24.31;39.31;98185.66;4456216;32;20148;-78
2022/08/12 03:07:27;;;;;;;4.70;1.70;;;;;;;24.63;38.59;98185.16;4442647;32;20141;-78
2022/08/12 03:10:15;;;;;;;3.80;1.70;;;;;;;24.13;39.54;98177.66;4456212;32;20147;-78
2022/08/12 03:13:03;;;;;;;5.53;2.00;;;;;;;23.71;40.72;98180.78;4444627;32;20101;-78
2022/08/12 03:15:30;;;;;;;6.05;1.90;;;;;;;23.44;41.72;98191.25;4429788;32;20093;-78
2022/08/12 03:18:06;;;;;;;2.72;1.55;;;;;;;23.24;42.28;98183.41;4442129;32;20469;-78
2022/08/12 03:20:54;;;;;;;9.50;1.80;;;;;;;22.92;42.77;98188.97;4456217;32;20441;-78
2022/08/12 03:23:21;;;;;;;4.43;1.80;;;;;;;23.99;40.53;98186.91;4442381;32;20109;-79
2022/08/12 03:26:00;;;;;;;6.22;1.73;;;;;;;23.18;42.09;98183.97;4454869;32;20084;-78
2022/08/12 03:31:31;;;;;;;3.28;1.50;;;;;;;23.57;41.56;98186.50;4455949;32;20097;-78
2022/08/12 03:34:03;;;;;;;3.37;1.60;;;;;;;23.06;42.68;98188.53;4456280;32;20164;-78
2022/08/12 03:36:35;;;;;;;6.85;2.00;;;;;;;23.08;42.69;98185.81;4456223;32;20093;-78
2022/08/12 03:42:24;;;;;;;5.57;1.65;;;;;;;23.17;42.45;98182.28;4456386;32;20101;-78
2022/08/12 04:01:56;;;;;;;2.75;1.60;;;;;;;24.33;40.26;98191.59;4455858;32;20103;-77
2022/08/12 04:04:33;;;;;;;7.95;2.05;;;;;;;24.24;40.85;98202.06;4456111;32;20158;-78
2022/08/12 04:07:05;;;;;;;11.23;2.37;;;;;;;24.28;41.25;98207.84;4455568;32;20109;-78
2022/08/12 04:09:33;;;;;;;9.27;2.60;;;;;;;24.80;40.70;98198.34;4456179;32;20168;-78
2022/08/12 04:14:52;;;;;;;5.78;2.00;;;;;;;24.72;40.76;98200.06;4455724;32;20101;-78
2022/08/12 04:17:20;;;;;;;4.70;1.90;;;;;;;25.14;40.12;98204.75;4455926;32;20491;-78
2022/08/12 04:19:47;;;;;;;5.18;1.70;;;;;;;25.58;39.35;98202.91;4442117;32;20090;-78
2022/08/12 04:22:15;;;;;;;5.65;1.80;;;;;;;25.91;38.59;98203.94;4455707;32;20138;-78
2022/08/12 04:24:43;;;;;;;11.00;2.30;;;;;;;26.15;38.08;98214.59;4455821;32;20105;-78
2022/08/12 04:27:16;;;;;;;12.40;2.95;;;;;;;26.19;38.05;98215.13;4442364;32;20158;-78
2022/08/12 04:29:43;;;;;;;7.85;2.28;;;;;;;26.28;38.09;98216.81;4455963;32;20073;-78
2022/08/12 04:32:31;;;;;;;6.10;2.00;;;;;;;26.68;37.79;98217.91;4455849;32;20097;-78
2022/08/12 04:34:57;;;;;;;6.10;2.15;;;;;;;27.35;36.68;98213.34;4455341;32;20117;-78
2022/08/12 04:37:24;;;;;;;6.05;2.10;;;;;;;27.16;36.94;98213.69;4455277;32;20104;-78
2022/08/12 04:39:52;;;;;;;7.12;2.12;;;;;;;27.17;36.53;98216.16;4455794;32;20144;-78
2022/08/12 04:42:20;;;;;;;5.45;2.00;;;;;;;26.90;36.22;98225.22;4455429;32;20108;-78
2022/08/12 04:44:47;;;;;;;5.95;2.00;;;;;;;26.92;36.41;98223.25;4455563;32;20160;-79
2022/08/12 04:47:15;;;;;;;5.57;2.10;;;;;;;27.45;35.33;98227.25;4455571;32;20432;-78
2022/08/12 04:49:45;;;;;;;7.82;2.12;;;;;;;27.04;36.07;98229.06;4455412;32;20085;-78
2022/08/12 04:52:13;;;;;;;6.30;2.15;;;;;;;27.01;36.46;98232.00;4441679;32;20416;-78
2022/08/12 04:54:40;;;;;;;7.12;2.00;;;;;;;27.07;36.45;98239.34;4455501;32;20097;-78
2022/08/12 04:57:08;;;;;;;7.65;2.00;;;;;;;27.48;35.73;98234.84;4455248;32;20560;-78
2022/08/12 04:59:35;;;;;;;7.57;2.10;;;;;;;27.20;36.76;98238.81;4455593;32;20145;-78
2022/08/12 05:02:20;;;;;;;6.90;2.05;;;;;;;27.58;36.91;98238.13;4455389;32;20073;-78
2022/08/12 05:04:54;;;;;;;10.00;2.22;;;;;;;27.51;37.18;98246.91;4455483;32;20123;-78
2022/08/12 05:07:26;;;;;;;5.80;1.95;;;;;;;27.96;36.06;98244.53;4455415;32;20119;-78
2022/08/12 05:09:54;;;;;;;5.18;1.65;;;;;;;28.46;34.77;98242.53;4455102;32;20099;-78
2022/08/12 05:12:32;;;;;;;5.37;1.80;;;;;;;28.41;32.63;98243.06;4455511;32;20096;-78
2022/08/12 05:14:59;;;;;;;5.82;1.80;;;;;;;28.21;33.71;98239.97;4441347;32;20097;-78
2022/08/12 05:17:26;;;;;;;2.10;1.60;;;;;;;28.23;33.42;98235.31;4454974;32;20098;-78
2022/08/12 05:19:54;;;;;;;2.42;1.30;;;;;;;29.12;31.35;98245.59;4455435;32;20077;-78
2022/08/12 05:22:25;;;;;;;1.55;1.20;;;;;;;29.87;29.63;98250.91;4455297;32;20115;-78
2022/08/12 05:24:53;;;;;;;5.00;1.60;;;;;;;28.98;30.59;98256.00;4454744;32;20141;-78
2022/08/12 05:27:21;;;;;;;3.28;1.70;;;;;;;28.86;30.51;98252.06;4454903;32;20181;-78
2022/08/12 05:29:48;;;;;;;6.03;1.70;;;;;;;29.23;30.25;98245.19;4454984;32;20450;-78
2022/08/12 05:32:35;;;;;;;4.00;1.55;;;;;;;29.44;29.82;98252.47;4454848;32;20515;-78
2022/08/12 05:35:05;;;;;;;4.00;1.30;;;;;;;28.29;31.39;98249.75;4454846;32;20097;-78
2022/08/12 05:37:37;;;;;;;3.45;1.50;;;;;;;27.70;32.68;98251.91;4454577;32;20105;-83
2022/08/12 05:40:05;;;;;;;3.37;1.40;;;;;;;27.24;33.52;98250.75;4455110;32;20089;-82
2022/08/12 05:42:37;;;;;;;4.05;1.40;;;;;;;28.67;31.46;98250.69;4441709;32;20107;-82
2022/08/12 05:45:05;;;;;;;6.10;1.50;;;;;;;28.42;32.14;98249.19;4454534;32;20111;-81
2022/08/12 05:47:32;;;;;;;4.12;1.60;;;;;;;28.66;31.43;98250.88;4454829;32;20127;-82
2022/08/12 05:50:19;;;;;;;3.78;1.92;;;;;;;27.61;32.90;98259.00;4444827;32;20093;-82
2022/08/12 05:52:47;;;;;;;5.32;1.55;;;;;;;27.17;33.90;98250.59;4456692;32;20120;-82
2022/08/12 05:55:14;;;;;;;3.72;1.50;;;;;;;26.30;35.81;98243.09;4456840;32;20093;-81
2022/08/12 05:57:47;;;;;;;4.07;1.65;;;;;;;26.28;35.78;98243.25;4456956;32;20134;-83
2022/08/12 06:00:16;;;;;;;3.72;1.60;;;;;;;27.37;34.15;98248.44;4456781;32;20089;-83
2022/08/12 06:02:45;;;;;;;3.65;1.83;;;;;;;27.54;33.65;98246.56;4456906;32;20144;-84
2022/08/12 06:05:12;;;;;;;5.45;2.10;;;;;;;28.25;32.17;98248.41;4456492;32;20149;-83
2022/08/12 06:07:41;;;;;;;6.70;1.80;;;;;;;27.88;32.89;98252.53;4456705;32;20144;-81
2022/08/12 06:10:32;;;;;;;4.12;1.90;;;;;;;26.84;34.21;98248.87;4456714;32;20085;-81
2022/08/12 06:13:04;;;;;;;3.25;1.73;;;;;;;27.05;33.55;98252.75;4456499;32;20077;-82
2022/08/12 06:15:36;;;;;;;7.07;1.85;;;;;;;27.09;34.12;98254.06;4456520;32;20108;-82
2022/08/12 06:18:09;;;;;;;3.55;1.92;;;;;;;27.00;33.84;98256.81;4456830;32;20093;-82
2022/08/12 06:20:42;;;;;;;3.97;1.80;;;;;;;27.16;33.87;98254.22;4457610;32;20103;-88
2022/08/12 06:23:10;;;;;;;2.92;1.85;;;;;;;27.36;33.55;98260.03;4457010;32;20142;-79
2022/08/12 06:25:37;;;;;;;3.05;2.00;;;;;;;27.21;33.28;98254.56;4456481;32;20195;-81
2022/08/12 06:28:16;;;;;;;4.68;1.98;;;;;;;26.17;35.45;98252.31;4456303;32;20153;-80
2022/08/12 06:30:46;;;;;;;7.07;2.17;;;;;;;26.85;34.33;98256.66;4443129;32;20444;-81
2022/08/12 06:33:34;;;;;;;4.93;2.00;;;;;;;25.89;35.80;98261.41;4456445;32;20154;-81
2022/08/12 06:36:25;;;;;;;3.37;1.95;;;;;;;25.85;36.32;98258.28;4456369;32;20097;-81
2022/08/12 06:38:59;;;;;;;3.60;2.00;;;;;;;25.57;37.44;98262.00;4456719;32;20109;-81
2022/08/12 06:44:31;;;;;;;5.62;2.05;;;;;;;26.41;35.14;98256.88;4456426;32;20496;-81
2022/08/12 06:46:58;;;;;;;5.25;2.00;;;;;;;26.22;35.17;98250.00;4442551;32;20097;-81
2022/08/12 06:49:27;;;;;;;4.32;2.10;;;;;;;26.97;34.45;98250.03;4456394;32;20097;-82
2022/08/12 06:51:54;;;;;;;6.87;2.20;;;;;;;28.05;32.86;98244.50;4456605;32;20077;-82
2022/08/12 06:54:24;;;;;;;4.72;2.08;;;;;;;27.69;33.38;98254.72;4456156;32;20099;-81
2022/08/12 06:56:59;;;;;;;5.15;2.17;;;;;;;28.06;32.73;98248.81;4456578;32;20097;-81
2022/08/12 06:59:31;;;;;;;5.90;2.30;;;;;;;28.21;32.43;98247.09;4456641;32;20105;-81
2022/08/12 07:01:58;;;;;;;5.43;2.40;;;;;;;27.58;33.32;98247.91;4455967;32;20108;-80
2022/08/12 07:04:25;;;;;;;4.10;2.17;;;;;;;27.55;33.26;98248.25;4456170;32;20124;-81
2022/08/12 07:07:04;;;;;;;5.62;1.90;;;;;;;26.43;35.07;98249.63;4456393;32;20101;-81
2022/08/12 07:09:31;;;;;;;5.05;2.03;;;;;;;26.44;35.01;98245.97;4456056;32;20111;-81
2022/08/12 07:12:18;;;;;;;4.25;2.12;;;;;;;26.02;36.04;98248.59;4456333;32;20089;-80
2022/08/12 07:14:49;;;;;;;4.60;2.00;;;;;;;28.22;32.72;98262.00;4456055;32;20080;-82
2022/08/12 07:17:16;;;;;;;6.55;2.50;;;;;;;27.81;32.77;98258.66;4455854;32;20119;-83
2022/08/12 07:19:45;;;;;;;4.32;2.08;;;;;;;28.34;32.48;98258.00;4456253;32;20160;-81
2022/08/12 07:22:14;;;;;;;4.20;2.20;;;;;;;28.00;32.32;98260.09;4456355;32;20427;-80
2022/08/12 07:24:42;;;;;;;5.28;2.12;;;;;;;29.23;30.73;98255.81;4429025;32;20144;-81
2022/08/12 07:27:09;;;;;;;3.87;2.20;;;;;;;26.72;34.16;98251.00;4456140;32;20153;-80
2022/08/12 07:29:36;;;;;;;5.35;2.20;;;;;;;26.16;35.45;98258.59;4455859;32;20112;-81
2022/08/12 07:32:23;;;;;;;3.62;2.00;;;;;;;25.64;36.40;98253.31;4456133;32;20093;-83
2022/08/12 07:34:55;;;;;;;4.80;2.22;;;;;;;27.34;33.68;98262.03;4456105;32;20104;-82
2022/08/12 07:37:22;;;;;;;4.40;2.20;;;;;;;28.60;31.68;98256.88;4455766;32;20123;-82
2022/08/12 07:39:49;;;;;;;5.55;2.40;;;;;;;30.06;29.79;98266.34;4456232;32;20149;-83
2022/08/12 07:42:27;;;;;;;9.68;2.50;;;;;;;28.97;30.63;98258.84;4456342;32;20190;-82
2022/08/12 07:44:55;;;;;;;5.97;2.22;;;;;;;29.78;29.75;98267.97;4455704;32;20144;-82
2022/08/12 07:47:23;;;;;;;4.43;2.35;;;;;;;26.61;33.92;98254.78;4455949;32;20153;-80
2022/08/12 07:49:51;;;;;;;7.15;2.50;;;;;;;29.31;30.00;98259.22;4456065;32;20152;-82
2022/08/12 07:52:33;;;;;;;3.87;2.40;;;;;;;30.06;29.25;98263.69;4455809;32;20443;-80
2022/08/12 07:55:01;;;;;;;5.43;2.47;;;;;;;30.14;29.37;98265.44;4455879;32;20082;-80
2022/08/12 07:57:28;;;;;;;6.60;2.53;;;;;;;27.96;31.63;98260.44;4455802;32;20223;-78
2022/08/12 07:59:55;;;;;;;6.97;2.45;;;;;;;28.05;31.75;98255.09;4455998;32;20129;-80
2022/08/12 08:02:22;;;;;;;7.18;2.90;;;;;;;29.96;28.86;98249.81;4456007;32;20144;-80
2022/08/12 08:04:55;;;;;;;6.87;2.55;;;;;;;29.34;29.62;98252.72;4455609;32;20443;-79
2022/08/12 08:07:24;;;;;;;5.47;2.30;;;;;;;29.38;29.67;98244.22;4455891;32;20121;-79
2022/08/12 08:09:56;;;;;;;5.93;2.12;;;;;;;28.88;30.84;98251.91;4455861;32;20132;-79
2022/08/12 08:15:15;;;;;;;5.00;2.15;;;;;;;30.90;27.38;98256.13;4455733;32;20137;-79
2022/08/12 08:18:01;;;;;;;4.68;1.98;;;;;;;29.67;29.10;98262.09;4455867;32;20145;-79
2022/08/12 08:20:32;;;;;;;4.37;1.98;;;;;;;30.38;28.14;98265.13;4455738;32;20447;-79
2022/08/12 08:23:06;;;;;;;4.40;2.05;;;;;;;30.74;27.66;98267.84;4455837;32;20104;-79
2022/08/12 08:25:37;;;;;;;5.95;2.10;;;;;;;31.60;26.46;98271.34;4455334;32;20112;-80
2022/08/12 08:28:08;;;;;;;5.05;1.98;;;;;;;30.49;27.54;98261.16;4455680;32;20149;-79
2022/08/12 08:30:38;;;;;;;7.30;2.28;;;;;;;30.37;28.44;98263.47;4441735;32;20161;-79
2022/08/12 08:33:10;;;;;;;6.55;2.28;;;;;;;30.46;28.46;98261.53;4441534;32;20404;-80
2022/08/12 08:35:50;;;;;;;5.40;2.12;;;;;;;31.36;27.61;98261.88;4455668;32;20138;-80
2022/08/12 08:38:20;;;;;;;3.10;1.92;;;;;;;30.66;27.99;98257.31;4442015;32;20418;-79
2022/08/12 08:44:09;;;;;;;2.60;1.67;;;;;;;32.26;26.08;98254.09;4455465;32;20150;-81
2022/08/12 08:46:41;;;;;;;5.15;2.20;;;;;;;30.81;26.59;98255.41;4455509;32;20089;-80
2022/08/12 08:49:08;;;;;;;4.53;2.10;;;;;;;30.20;27.33;98248.72;4455512;32;20111;-81
2022/08/12 08:51:36;;;;;;;5.85;2.17;;;;;;;30.72;27.14;98250.38;4455405;32;20180;-81
2022/08/12 08:54:07;;;;;;;4.62;1.87;;;;;;;31.86;25.53;98253.88;4455336;32;20105;-80
2022/08/12 08:56:45;;;;;;;3.37;1.77;;;;;;;33.50;23.73;98266.16;4455347;32;20115;-80
2022/08/12 08:59:12;;;;;;;3.42;1.70;;;;;;;31.04;26.61;98257.06;4455572;32;20452;-81
2022/08/12 09:01:40;;;;;;;8.15;1.70;;;;;;;31.64;26.19;98261.91;4441298;32;20169;-79
2022/08/12 09:04:10;;;;;;;2.45;1.70;;;;;;;31.13;26.86;98260.44;4441826;32;20097;-80
2022/08/12 09:06:59;;;;;;;4.35;1.62;;;;;;;30.13;27.50;98253.16;4455133;32;20073;-81
2022/08/12 09:09:46;;;;;;;5.35;1.90;;;;;;;29.06;29.67;98261.25;4455021;32;20139;-81
2022/08/12 09:15:23;;;;;;;3.90;1.80;;;;;;;29.86;28.17;98252.75;4454915;32;20089;-80
2022/08/12 09:18:04;;;;;;;3.55;1.90;;;;;;;29.08;29.57;98255.78;4442409;32;20123;-81
2022/08/12 09:20:37;;;;;;;4.37;2.10;;;;;;;31.25;26.87;98251.75;4441861;32;20124;-80
2022/08/12 09:23:07;;;;;;;4.57;1.87;;;;;;;32.48;25.39;98237.78;4455008;32;20108;-80
2022/08/12 09:25:54;;;;;;;2.42;1.45;;;;;;;31.75;26.15;98249.09;4457146;32;20128;-79
2022/08/12 09:28:25;;;;;;;3.95;2.00;;;;;;;31.93;25.19;98250.22;4456954;32;20081;-79
2022/08/12 09:31:10;;;;;;;3.95;1.80;;;;;;;33.55;23.57;98252.16;4445117;32;20093;-79
2022/08/12 09:33:57;;;;;;;4.75;1.80;;;;;;;31.82;25.50;98253.44;4456881;32;20431;-79
2022/08/12 09:36:44;;;;;;;4.22;2.00;;;;;;;31.74;25.19;98250.06;4456631;32;20350;-80
2022/08/12 09:39:30;;;;;;;4.82;1.75;;;;;;;32.98;23.93;98242.88;4457129;32;20103;-79
2022/08/12 09:45:21;;;;;;;4.78;1.70;;;;;;;29.96;27.26;98232.00;4456857;32;20169;-79
2022/08/12 09:48:08;;;;;;;4.15;1.70;;;;;;;31.87;25.09;98231.50;4456757;32;20486;-79
2022/08/12 09:50:50;;;;;;;6.18;2.08;;;;;;;29.06;28.78;98226.72;4456569;32;20486;-80
2022/08/12 09:53:23;;;;;;;2.80;1.67;;;;;;;31.74;25.75;98229.56;4431259;32;20169;-80
2022/08/12 09:56:05;;;;;;;4.93;1.70;;;;;;;32.04;24.34;98224.00;4456828;32;20356;-80
2022/08/12 09:58:52;;;;;;;2.85;1.60;;;;;;;31.71;24.48;98218.47;4445007;32;20134;-79
2022/08/12 10:01:28;;;;;;;4.75;1.80;;;;;;;31.99;24.60;98213.09;4456906;32;20152;-79
2022/08/12 10:04:15;;;;;;;3.78;1.92;;;;;;;31.75;24.31;98217.91;4444734;32;20459;-79
2022/08/12 10:06:46;;;;;;;3.50;1.87;;;;;;;30.91;25.79;98208.97;4456693;32;20171;-78
2022/08/12 10:09:23;;;;;;;4.70;1.80;;;;;;;32.52;23.90;98206.97;4456900;32;20180;-79
2022/08/12 10:15:00;;;;;;;2.87;1.70;;;;;;;31.85;24.78;98206.88;4456784;32;20093;-79
2022/08/12 10:17:28;;;;;;;2.58;1.55;;;;;;;32.25;24.30;98199.88;4456856;32;20367;-79
2022/08/12 10:19:55;;;;;;;3.22;1.80;;;;;;;29.84;27.30;98184.78;4456376;32;20426;-78
2022/08/12 10:22:25;;;;;;;5.45;2.08;;;;;;;29.85;26.90;98189.09;4456758;32;20144;-79
2022/08/12 10:30:58;;;;;;;3.25;1.67;;;;;;;30.52;25.82;98179.09;4456562;32;20159;-80
2022/08/12 10:33:32;;;;;;;2.72;1.40;;;;;;;28.05;28.64;98171.06;4442851;32;20385;-79
2022/08/12 10:36:11;;;;;;;3.15;1.62;;;;;;;27.14;30.42;98179.41;4456170;32;20521;-78
2022/08/12 10:38:38;;;;;;;4.10;1.70;;;;;;;28.09;29.23;98175.03;4456459;32;20442;-79
2022/08/12 10:44:15;;;;;;;4.35;1.70;;;;;;;27.33;30.57;98187.00;4456258;32;20140;-79
2022/08/12 10:46:44;;;;;;;3.85;1.73;;;;;;;27.55;30.03;98185.47;4456183;32;20117;-79
2022/08/12 10:49:16;;;;;;;5.20;2.22;;;;;;;27.06;30.27;98185.53;4456534;32;20149;-79
2022/08/12 10:52:04;;;;;;;5.30;1.80;;;;;;;27.54;29.96;98182.97;4445137;32;20148;-79
2022/08/12 10:54:54;;;;;;;3.22;1.80;;;;;;;30.12;26.13;98177.00;4444365;32;20430;-80
2022/08/12 10:57:25;;;;;;;4.65;2.00;;;;;;;29.17;27.58;98182.97;4456453;32;20116;-79
2022/08/12 11:00:13;;;;;;;2.85;1.60;;;;;;;29.82;26.54;98168.19;4456025;32;20644;-82
2022/08/12 11:03:01;;;;;;;3.25;1.60;;;;;;;30.53;25.43;98174.59;4456689;32;20096;-79
2022/08/12 11:05:49;;;;;;;3.17;1.60;;;;;;;29.82;26.12;98166.34;4456526;32;20146;-80
2022/08/12 11:08:44;;;;;;;5.75;1.83;;;;;;;29.59;26.28;98160.31;4455809;32;20097;-80
2022/08/12 11:11:16;;;;;;;;;;;;;;;29.30;26.46;98158.44;4456890;32;20161;-80
2022/08/12 11:14:04;;;;;;;4.65;1.77;;;;;;;28.82;26.63;98163.16;4456135;32;19977;-80
2022/08/12 11:16:32;;;;;;;7.20;1.62;;;;;;;29.73;25.83;98162.13;4456197;32;20099;-79
2022/08/12 11:19:01;;;;;;;3.80;1.70;;;;;;;28.96;26.55;98157.09;4456226;32;20101;-80
2022/08/12 11:21:28;;;;;;;4.40;2.05;;;;;;;29.32;26.32;98143.13;4456056;32;20104;-80
2022/08/12 11:24:15;;;;;;;1.87;1.30;;;;;;;27.95;28.16;98144.75;4456104;32;20097;-80
2022/08/12 11:26:58;;;;;;;3.17;1.60;;;;;;;26.40;30.04;98143.28;4432704;32;20073;-80
2022/08/12 11:29:26;;;;;;;4.03;1.42;;;;;;;28.66;27.72;98144.69;4455665;32;20561;-79
2022/08/12 11:32:13;;;;;;;4.40;2.20;;;;;;;29.99;26.23;98155.50;4455739;32;20104;-79
2022/08/12 11:34:40;;;;;;;2.70;1.58;;;;;;;31.50;23.79;98150.84;4456083;32;20138;-79
2022/08/12 11:37:20;;;;;;;3.17;1.58;;;;;;;31.57;23.33;98156.19;4443423;32;20148;-80
2022/08/12 11:39:51;;;;;;;3.03;1.58;;;;;;;31.16;23.81;98150.75;4456154;32;20100;-80
2022/08/12 11:42:35;;;;;;;3.03;1.58;;;;;;;29.02;26.06;98144.91;4456515;32;20491;-79
2022/08/12 11:45:05;;;;;;;2.25;1.48;;;;;;;28.80;26.31;98144.72;4456062;32;20221;-81
2022/08/12 11:47:37;;;;;;;3.00;1.42;;;;;;;30.25;24.93;98134.56;4454897;32;20127;-81
2022/08/12 11:50:06;;;;;;;3.05;1.50;;;;;;;31.29;23.89;98142.91;4442089;32;20117;-82
2022/08/12 11:52:37;;;;;;;4.10;1.80;;;;;;;29.99;25.12;98139.53;4456105;32;20093;-82
2022/08/12 11:55:25;;;;;;;3.65;1.70;;;;;;;30.14;25.33;98135.06;4443843;32;20142;-82
2022/08/12 11:57:56;;;;;;;4.25;1.70;;;;;;;30.00;25.89;98135.88;4441730;32;20428;-81
2022/08/12 12:00:43;;;;;;;4.80;2.20;;;;;;;29.69;25.69;98125.47;4456090;32;20125;-82
2022/08/12 12:03:30;;;;;;;2.97;1.40;;;;;;;29.42;26.16;98132.22;4455390;32;20169;-81
2022/08/12 12:06:16;;;;;;;4.57;1.55;;;;;;;29.73;25.73;98127.56;4456111;32;20138;-82
2022/08/12 12:08:44;;;;;;;3.75;1.75;;;;;;;29.98;25.87;98120.09;4455838;32;20100;-81
2022/08/12 12:11:17;;;;;;;5.32;1.80;;;;;;;30.46;25.05;98123.94;4455747;32;20132;-81
2022/08/12 12:13:45;;;;;;;4.40;1.73;;;;;;;30.46;25.57;98131.91;4455764;32;20119;-82
2022/08/12 12:17:54;;;;;;;5.22;2.00;;;;;;;31.97;23.71;98119.06;4498543;31;631641;-81
2022/08/12 12:20:22;;;;;;;5.22;1.62;;;;;;;31.97;23.71;98119.06;4515052;31;20427;-80
2022/08/12 12:22:53;;;;;;;4.78;1.77;;;;;;;29.25;26.10;98119.13;4515187;31;20088;-81
2022/08/12 12:25:20;;;;;;;4.28;1.60;;;;;;;30.46;24.19;98123.09;4514648;31;20088;-81
2022/08/12 12:28:07;;;;;;;;;;;;;;;32.12;22.44;98117.91;4515416;31;20144;-80
2022/08/12 12:30:54;;;;;;;5.85;2.33;;;;;;;32.61;21.29;98110.63;4515138;31;20415;-80
2022/08/12 12:33:21;;;;;;;5.28;1.62;;;;;;;34.49;20.07;98120.47;4500243;31;20152;-80
2022/08/12 12:35:48;;;;;;;2.87;1.60;;;;;;;35.13;19.25;98113.19;4514807;31;20143;-80
2022/08/12 12:38:35;;;;;;;4.18;1.58;;;;;;;33.94;20.14;98120.97;4514760;31;20107;-81
2022/08/12 12:41:02;;;;;;;3.22;1.67;;;;;;;32.49;21.34;98113.91;4514929;31;20494;-81
2022/08/12 12:43:42;;;;;;;7.15;1.67;;;;;;;32.41;21.71;98103.41;4514595;31;20080;-81
2022/08/12 12:46:29;;;;;;;4.53;1.50;;;;;;;31.28;22.93;98115.44;4514409;31;20071;-81
2022/08/12 12:48:56;;;;;;;2.12;1.45;;;;;;;32.31;21.69;98110.16;4514769;31;20148;-81
2022/08/12 12:51:23;;;;;;;3.00;1.73;;;;;;;31.90;21.96;98113.69;4487429;31;20117;-81
2022/08/12 12:54:10;;;;;;;1.85;1.40;;;;;;;31.78;22.21;98112.63;4514265;31;20505;-80
2022/08/12 12:56:41;;;;;;;3.50;1.60;;;;;;;31.90;22.30;98108.38;4514507;31;20106;-81
2022/08/12 12:59:09;;;;;;;5.22;1.80;;;;;;;30.65;24.04;98119.84;4514809;31;20439;-81
2022/08/12 13:02:05;;;;;;;5.68;1.70;;;;;;;29.66;24.88;98102.72;4514599;31;20152;-81
2022/08/12 13:04:34;;;;;;;5.05;1.77;;;;;;;29.81;24.81;98102.72;4514543;31;20087;-79
2022/08/12 13:07:03;;;;;;;4.25;1.80;;;;;;;31.28;23.65;98099.44;4514321;31;20109;-78
2022/08/12 13:09:32;;;;;;;2.92;1.98;;;;;;;30.93;23.56;98103.03;4514706;31;20119;-78
2022/08/12 13:12:07;;;;;;;8.10;1.98;;;;;;;31.29;23.53;98095.75;4514725;31;20088;-78
2022/08/12 13:14:37;;;;;;;5.15;1.85;;;;;;;31.89;23.12;98099.53;4514107;31;20096;-78
2022/08/12 13:17:05;;;;;;;3.28;1.45;;;;;;;32.61;21.87;98100.75;4514177;31;20127;-78
2022/08/12 13:19:37;;;;;;;4.22;1.50;;;;;;;31.29;23.68;98079.75;4514551;31;20110;-78
2022/08/12 13:22:17;;;;;;;3.60;1.75;;;;;;;30.36;24.54;98085.34;4514311;31;20454;-80
2022/08/12 13:24:49;;;;;;;2.22;1.40;;;;;;;30.90;24.06;98082.94;4514463;31;20103;-82
2022/08/12 13:27:28;;;;;;;;;;;;;;;30.69;24.03;98088.31;4511828;31;20462;-80
2022/08/12 13:30:03;;;;;;;5.28;1.65;;;;;;;32.88;21.75;98087.44;4504183;31;19994;-79
2022/08/12 13:32:36;;;;;;;2.87;1.55;;;;;;;31.85;22.96;98079.63;4503962;31;20147;-80
2022/08/12 13:35:05;;;;;;;3.72;1.73;;;;;;;31.28;23.60;98074.63;4503354;31;20091;-81
2022/08/12 13:37:54;;;;;;;2.85;1.70;;;;;;;32.09;21.87;98077.44;4503803;31;20084;-80
2022/08/12 13:40:25;;;;;;;3.75;1.65;;;;;;;31.00;23.18;98082.63;4503818;31;20171;-80
2022/08/12 13:42:56;;;;;;;1.87;1.50;;;;;;;31.26;23.02;98076.66;4503469;31;20096;-80
2022/08/12 13:45:25;;;;;;;4.43;1.80;;;;;;;31.97;22.21;98077.19;4489960;31;20092;-79
2022/08/12 13:48:00;;;;;;;3.37;1.77;;;;;;;31.55;23.25;98087.06;4503725;31;20081;-79
2022/08/12 13:50:38;;;;;;;2.50;1.48;;;;;;;31.47;22.92;98078.41;4503528;31;20092;-78
2022/08/12 13:53:08;;;;;;;3.53;1.70;;;;;;;31.56;22.92;98077.22;4503800;31;20088;-78
2022/08/12 13:55:55;;;;;;;4.43;1.65;;;;;;;29.94;24.60;98074.44;4502997;31;20087;-78
2022/08/12 13:58:28;;;;;;;3.87;1.70;;;;;;;31.57;23.21;98069.00;4503695;31;20076;-78
2022/08/12 14:00:56;;;;;;;3.50;1.70;;;;;;;33.69;20.61;98062.97;4503149;31;20159;-79
2022/08/12 14:03:24;;;;;;;2.62;1.60;;;;;;;33.75;20.42;98059.47;4503128;31;20097;-80
2022/08/12 14:06:11;;;;;;;6.80;1.60;;;;;;;31.75;22.06;98054.34;4503544;31;20422;-80